My webcam  My webcam


Onweer radar Meer informatie blitzortung!


Lokaal brand risico:
CBI


Regionaal brand risico: Meer informatie


Regen radar Meer informatie rain snow radar


test


Het weer levert geen direct gevaar op.    Er zijn geen waarschuwingen afgegeven.

Notice: Undefined offset: 5 in /home/meteosle/domains/meteo-sleen.nl/public_html/weather2/metar/metarDisplay.php on line 75

Notice: Undefined offset: 6 in /home/meteosle/domains/meteo-sleen.nl/public_html/weather2/metar/metarDisplay.php on line 75

METAR rapporten vliegvelden

   
EBAW - Antwerp
Gewijzigd: 17-12-2017 19:50
Wat regen mogelijk, Grotendeels bewolkt  
Wat regen mogelijk, Grotendeels bewolkt  
   Wind: ZZW 18.5 km/h
Wind: ZZW 18.5 km/h
Temperatuur: 3°C
Voelt als: -1°C
Dauwpunt: 1°C
Vochtigheid: 87%
Barometer: 1022 hPa
Bewolking: Grotendeels bewolkt
Zicht: 8 km
Bewolking: Licht bewolkt 1200 ft,
Grotendeels bewolkt 3800 ft
EBAW 171850Z 20010KT 8000 -RA FEW012 BKN038 03/01 Q1022 NOSIG
EBLG - Liège
Gewijzigd: 17-12-2017 19:50
Helder  
Helder  
   Wind: ZZW 22.2 km/h
Wind: ZZW 22.2 km/h
Temperatuur: 2°C
Voelt als: -3°C
Dauwpunt: 0°C
Vochtigheid: 87%
Barometer: 1024 hPa
Zicht: meer dan 10 km
Bewolking: Helder
EBLG 171850Z 21012KT CAVOK 02/00 Q1024 NOSIG
EBCV - Mons/Bergen
Gewijzigd: 17-12-2017 19:55
Bewolking  
Bewolking  
   Wind: Zuiden 20.4 km/h
Wind: Zuiden 20.4 km/h
Temperatuur: 3°C
Voelt als: -2°C
Dauwpunt: 2°C
Vochtigheid: 93%
Barometer: 1023 hPa
Bewolking: Bewolking
Zicht: 8 km
Bewolking: Bewolking 6600 ft
EBCV 171855Z AUTO 18011KT 8000 OVC066/// 03/02 Q1023 BLU
EHBK - Maastricht
Gewijzigd: 17-12-2017 19:55
Gedeeltelijk bewolkt  
Gedeeltelijk bewolkt  
   Wind: ZZW 24.1 km/h
Wind: ZZW 24.1 km/h
Temperatuur: 3°C
Voelt als: -2°C
Dauwpunt: 1°C
Vochtigheid: 87%
Barometer: 1023 hPa
Bewolking: Gedeeltelijk bewolkt
Zicht: meer dan 10 km
Bewolking: Gedeeltelijk bewolkt
EHBK 171855Z AUTO 21013KT 9999 NSC 03/01 Q1023 NOSIG
EHAM - Schiphol
Gewijzigd: 17-12-2017 19:55
Grotendeels bewolkt  
Grotendeels bewolkt  
   Wind: ZZW 25.9 km/h
Wind: ZZW 25.9 km/h
Temperatuur: 4°C
Voelt als: -1°C
Dauwpunt: 1°C
Vochtigheid: 81%
Barometer: 1019 hPa
Bewolking: Grotendeels bewolkt
Zicht: meer dan 10 km
Bewolking: Licht bewolkt 3000 ft,
Grotendeels bewolkt 4000 ft
EHAM 171855Z 20014KT 9999 FEW030 BKN040 04/01 Q1019 BECMG 5000 BKN014
EHGG - Eelde
Gewijzigd: 17-12-2017 19:55
Gedeeltelijk bewolkt  
Gedeeltelijk bewolkt  
   Wind: Zuiden 18.5 km/h
Wind: Zuiden 18.5 km/h
Temperatuur: 3°C
Voelt als: -1°C
Dauwpunt: 2°C
Vochtigheid: 93%
Barometer: 1018 hPa
Bewolking: Gedeeltelijk bewolkt
Zicht: meer dan 10 km
Bewolking: Gedeeltelijk bewolkt
EHGG 171855Z AUTO 19010KT 9999 NSC 03/02 Q1018 NOSIG

Script ontwikkeld door  Saratoga-weather.org Aangepast voor de template door  Weerstation Leuven

U vindt ons ook hier:

Het Weer Aktueel

UK Metoffice

European Weather Network

Weather Underground

Benelux Weer Netwerk

AWEKAS

Citizen Weather Observer Program (CWOP)

Apparatuur in gebruik:

Weerstation
Davis VP2

Weerprogramma
consoleWD

Weercomputer
RaspberryPI

Webleverancier
Deziweb

Davis VP2

consoleWD

RaspberryPI

Deziweb